Hartford/Springfield (BDL/KBDL)

Information

Location
Hartford, CT
Local Time
19:25 / 7:25 pm
GMT Time
00:25 / 12:25 am
Gates
Unassigned
No FAA reported delays
METAR KBDL 222351Z 03011KT 10SM OVC013 06/04 A2985 RMK AO2 SLP108 T00610039 10117 20061 50021
TAF KBDL 222347Z 2300/2406 05012KT P6SM VCSH BKN012 OVC025 FM230600 04014KT P6SM OVC015 FM231200 05014KT P6SM VCSH OVC015 FM231700 06015KT P6SM VCSH OVC025 FM232100 05022G33KT P6SM VCSH OVC015 FM232200 05023G33KT P6SM -RAPL OVC015 FM240300 04025G35KT 1SM -RAPL BR OVC015
  • No charts available